Terminal Aerodrome Forecast
Issued by NWS Glasgow, MT

Home | Current Version | Previous Version | Text Only | Print | Product List | Glossary On
Versions: 1 2 3 4 5 6 7 8 9 10 11 12 13 14 15 16
000
FTUS45 KGGW 190528
TAFGGW
TAF
KGGW 190528Z 1906/2006 13010KT P6SM SCT120
     FM190700 13006KT P6SM SCT120 WS020/25025KT
     FM191300 14007KT P6SM FEW120
     FM191800 19008KT P6SM SKC=

USA.gov is the U.S. government's official web portal to all federal, state and local government web resources and services.